sensor_id;sensor_type;location;lat;lon;timestamp;temperature;humidity
51725;DHT22;37801;53.224;6.552;2022-07-06T00:01:33;15.60;99.90
51725;DHT22;37801;53.224;6.552;2022-07-06T00:04:01;15.60;99.90
51725;DHT22;37801;53.224;6.552;2022-07-06T00:06:27;15.60;99.90
51725;DHT22;37801;53.224;6.552;2022-07-06T00:08:52;15.60;99.90
51725;DHT22;37801;53.224;6.552;2022-07-06T00:11:18;15.60;99.90
51725;DHT22;37801;53.224;6.552;2022-07-06T00:13:44;15.60;99.90
51725;DHT22;37801;53.224;6.552;2022-07-06T00:16:10;15.60;99.90
51725;DHT22;37801;53.224;6.552;2022-07-06T00:18:35;15.60;99.90
51725;DHT22;37801;53.224;6.552;2022-07-06T00:21:01;15.60;99.90
51725;DHT22;37801;53.224;6.552;2022-07-06T00:23:27;15.60;99.90
51725;DHT22;37801;53.224;6.552;2022-07-06T00:25:52;15.60;99.90
51725;DHT22;37801;53.224;6.552;2022-07-06T00:28:18;15.60;99.90
51725;DHT22;37801;53.224;6.552;2022-07-06T00:30:44;15.50;99.90
51725;DHT22;37801;53.224;6.552;2022-07-06T00:37:06;15.50;99.90
51725;DHT22;37801;53.224;6.552;2022-07-06T00:39:33;15.50;99.90
51725;DHT22;37801;53.224;6.552;2022-07-06T00:41:59;15.40;99.90
51725;DHT22;37801;53.224;6.552;2022-07-06T00:44:25;15.40;99.90
51725;DHT22;37801;53.224;6.552;2022-07-06T00:46:50;15.40;99.90
51725;DHT22;37801;53.224;6.552;2022-07-06T00:49:17;15.30;99.90
51725;DHT22;37801;53.224;6.552;2022-07-06T00:52:01;15.40;99.90
51725;DHT22;37801;53.224;6.552;2022-07-06T00:54:30;15.40;99.90
51725;DHT22;37801;53.224;6.552;2022-07-06T00:56:57;15.40;99.90
51725;DHT22;37801;53.224;6.552;2022-07-06T00:59:24;15.40;99.90
51725;DHT22;37801;53.224;6.552;2022-07-06T01:01:50;15.30;99.90
51725;DHT22;37801;53.224;6.552;2022-07-06T01:04:16;15.30;99.90
51725;DHT22;37801;53.224;6.552;2022-07-06T01:06:44;15.30;99.90
51725;DHT22;37801;53.224;6.552;2022-07-06T01:09:10;15.30;99.90
51725;DHT22;37801;53.224;6.552;2022-07-06T01:11:36;15.30;99.90
51725;DHT22;37801;53.224;6.552;2022-07-06T01:14:02;15.30;99.90
51725;DHT22;37801;53.224;6.552;2022-07-06T01:16:28;15.30;99.90
51725;DHT22;37801;53.224;6.552;2022-07-06T01:18:54;15.30;99.90
51725;DHT22;37801;53.224;6.552;2022-07-06T01:21:19;15.40;99.90
51725;DHT22;37801;53.224;6.552;2022-07-06T01:23:47;15.30;99.90
51725;DHT22;37801;53.224;6.552;2022-07-06T01:26:18;15.30;99.90
51725;DHT22;37801;53.224;6.552;2022-07-06T01:28:48;15.30;99.90
51725;DHT22;37801;53.224;6.552;2022-07-06T01:31:15;15.20;99.90
51725;DHT22;37801;53.224;6.552;2022-07-06T01:33:42;15.20;99.90
51725;DHT22;37801;53.224;6.552;2022-07-06T01:36:08;15.20;99.90
51725;DHT22;37801;53.224;6.552;2022-07-06T01:41:11;15.20;99.90
51725;DHT22;37801;53.224;6.552;2022-07-06T01:43:38;15.20;99.90
51725;DHT22;37801;53.224;6.552;2022-07-06T01:46:04;15.20;99.90
51725;DHT22;37801;53.224;6.552;2022-07-06T01:48:30;15.20;99.90
51725;DHT22;37801;53.224;6.552;2022-07-06T01:50:56;15.20;99.90
51725;DHT22;37801;53.224;6.552;2022-07-06T01:53:22;15.20;99.90
51725;DHT22;37801;53.224;6.552;2022-07-06T01:55:47;15.20;99.90
51725;DHT22;37801;53.224;6.552;2022-07-06T01:58:13;15.30;99.90
51725;DHT22;37801;53.224;6.552;2022-07-06T02:00:39;15.30;99.90
51725;DHT22;37801;53.224;6.552;2022-07-06T02:03:04;15.30;99.90
51725;DHT22;37801;53.224;6.552;2022-07-06T02:05:30;15.30;99.90
51725;DHT22;37801;53.224;6.552;2022-07-06T02:07:56;15.30;99.90
51725;DHT22;37801;53.224;6.552;2022-07-06T02:10:21;15.40;99.90
51725;DHT22;37801;53.224;6.552;2022-07-06T02:12:47;15.40;99.90
51725;DHT22;37801;53.224;6.552;2022-07-06T02:15:13;15.40;99.90
51725;DHT22;37801;53.224;6.552;2022-07-06T02:17:39;15.30;99.90
51725;DHT22;37801;53.224;6.552;2022-07-06T02:20:05;15.30;99.90
51725;DHT22;37801;53.224;6.552;2022-07-06T02:22:31;15.30;99.90
51725;DHT22;37801;53.224;6.552;2022-07-06T02:24:57;15.20;99.90
51725;DHT22;37801;53.224;6.552;2022-07-06T02:27:23;15.20;99.90
51725;DHT22;37801;53.224;6.552;2022-07-06T02:29:48;15.10;99.90
51725;DHT22;37801;53.224;6.552;2022-07-06T02:32:14;15.10;99.90
51725;DHT22;37801;53.224;6.552;2022-07-06T02:34:40;15.00;99.90
51725;DHT22;37801;53.224;6.552;2022-07-06T02:37:05;14.90;99.90
51725;DHT22;37801;53.224;6.552;2022-07-06T02:39:31;14.80;99.90
51725;DHT22;37801;53.224;6.552;2022-07-06T02:41:57;14.80;99.90
51725;DHT22;37801;53.224;6.552;2022-07-06T02:44:22;14.80;99.90
51725;DHT22;37801;53.224;6.552;2022-07-06T02:46:48;14.70;99.90
51725;DHT22;37801;53.224;6.552;2022-07-06T02:49:14;14.60;99.90
51725;DHT22;37801;53.224;6.552;2022-07-06T02:51:39;14.60;99.90
51725;DHT22;37801;53.224;6.552;2022-07-06T02:54:05;14.60;99.90
51725;DHT22;37801;53.224;6.552;2022-07-06T02:56:31;14.50;99.90
51725;DHT22;37801;53.224;6.552;2022-07-06T02:58:56;14.40;99.90
51725;DHT22;37801;53.224;6.552;2022-07-06T03:01:22;14.40;99.90
51725;DHT22;37801;53.224;6.552;2022-07-06T03:03:48;14.30;99.90
51725;DHT22;37801;53.224;6.552;2022-07-06T03:06:13;14.30;99.90
51725;DHT22;37801;53.224;6.552;2022-07-06T03:08:39;14.20;99.90
51725;DHT22;37801;53.224;6.552;2022-07-06T03:11:05;14.10;99.90
51725;DHT22;37801;53.224;6.552;2022-07-06T03:13:30;14.10;99.90
51725;DHT22;37801;53.224;6.552;2022-07-06T03:15:56;14.10;99.90
51725;DHT22;37801;53.224;6.552;2022-07-06T03:18:22;14.00;99.90
51725;DHT22;37801;53.224;6.552;2022-07-06T03:20:47;14.00;99.90
51725;DHT22;37801;53.224;6.552;2022-07-06T03:23:13;14.00;99.90
51725;DHT22;37801;53.224;6.552;2022-07-06T03:25:39;14.00;99.90
51725;DHT22;37801;53.224;6.552;2022-07-06T03:28:05;14.00;99.90
51725;DHT22;37801;53.224;6.552;2022-07-06T03:30:30;13.90;99.90
51725;DHT22;37801;53.224;6.552;2022-07-06T03:32:56;13.90;99.90
51725;DHT22;37801;53.224;6.552;2022-07-06T03:35:22;13.90;99.90
51725;DHT22;37801;53.224;6.552;2022-07-06T03:37:47;13.90;99.90
51725;DHT22;37801;53.224;6.552;2022-07-06T03:40:13;13.90;99.90
51725;DHT22;37801;53.224;6.552;2022-07-06T03:42:40;13.90;99.90
51725;DHT22;37801;53.224;6.552;2022-07-06T03:45:06;13.90;99.90
51725;DHT22;37801;53.224;6.552;2022-07-06T03:47:32;13.90;99.90
51725;DHT22;37801;53.224;6.552;2022-07-06T03:49:58;13.90;99.90
51725;DHT22;37801;53.224;6.552;2022-07-06T03:52:24;13.90;99.90
51725;DHT22;37801;53.224;6.552;2022-07-06T03:54:50;13.80;99.90
51725;DHT22;37801;53.224;6.552;2022-07-06T03:57:15;13.80;99.90
51725;DHT22;37801;53.224;6.552;2022-07-06T03:59:42;13.80;99.90
51725;DHT22;37801;53.224;6.552;2022-07-06T04:02:07;13.80;99.90
51725;DHT22;37801;53.224;6.552;2022-07-06T04:04:34;13.80;99.90
51725;DHT22;37801;53.224;6.552;2022-07-06T04:07:00;13.80;99.90
51725;DHT22;37801;53.224;6.552;2022-07-06T04:09:25;13.80;99.90
51725;DHT22;37801;53.224;6.552;2022-07-06T04:11:52;13.80;99.90
51725;DHT22;37801;53.224;6.552;2022-07-06T04:14:17;13.80;99.90
51725;DHT22;37801;53.224;6.552;2022-07-06T04:16:43;13.90;99.90
51725;DHT22;37801;53.224;6.552;2022-07-06T04:19:09;13.90;99.90
51725;DHT22;37801;53.224;6.552;2022-07-06T04:21:35;14.00;99.90
51725;DHT22;37801;53.224;6.552;2022-07-06T04:24:01;14.10;99.90
51725;DHT22;37801;53.224;6.552;2022-07-06T04:26:26;14.20;99.90
51725;DHT22;37801;53.224;6.552;2022-07-06T04:28:52;14.20;99.90
51725;DHT22;37801;53.224;6.552;2022-07-06T04:31:18;14.30;99.90
51725;DHT22;37801;53.224;6.552;2022-07-06T04:33:44;14.20;99.90
51725;DHT22;37801;53.224;6.552;2022-07-06T04:36:10;14.30;99.90
51725;DHT22;37801;53.224;6.552;2022-07-06T04:38:36;14.30;99.90
51725;DHT22;37801;53.224;6.552;2022-07-06T04:41:02;14.20;99.90
51725;DHT22;37801;53.224;6.552;2022-07-06T04:43:28;14.20;99.90
51725;DHT22;37801;53.224;6.552;2022-07-06T04:45:54;14.20;99.90
51725;DHT22;37801;53.224;6.552;2022-07-06T04:48:20;14.20;99.90
51725;DHT22;37801;53.224;6.552;2022-07-06T04:50:45;14.20;99.90
51725;DHT22;37801;53.224;6.552;2022-07-06T04:53:11;14.20;99.90
51725;DHT22;37801;53.224;6.552;2022-07-06T04:55:37;14.30;99.90
51725;DHT22;37801;53.224;6.552;2022-07-06T04:58:02;14.30;99.90
51725;DHT22;37801;53.224;6.552;2022-07-06T05:00:28;14.40;99.90
51725;DHT22;37801;53.224;6.552;2022-07-06T05:02:54;14.40;99.90
51725;DHT22;37801;53.224;6.552;2022-07-06T05:05:20;14.50;99.90
51725;DHT22;37801;53.224;6.552;2022-07-06T05:07:45;14.60;99.90
51725;DHT22;37801;53.224;6.552;2022-07-06T05:10:11;14.70;99.90
51725;DHT22;37801;53.224;6.552;2022-07-06T05:12:38;14.80;99.90
51725;DHT22;37801;53.224;6.552;2022-07-06T05:15:04;14.90;99.90
51725;DHT22;37801;53.224;6.552;2022-07-06T05:17:30;15.00;99.90
51725;DHT22;37801;53.224;6.552;2022-07-06T05:19:56;15.00;99.90
51725;DHT22;37801;53.224;6.552;2022-07-06T05:22:22;15.20;99.90
51725;DHT22;37801;53.224;6.552;2022-07-06T05:24:48;15.20;99.90
51725;DHT22;37801;53.224;6.552;2022-07-06T05:27:14;15.30;99.90
51725;DHT22;37801;53.224;6.552;2022-07-06T05:29:40;15.40;99.90
51725;DHT22;37801;53.224;6.552;2022-07-06T05:32:05;15.50;99.90
51725;DHT22;37801;53.224;6.552;2022-07-06T05:34:31;15.50;99.90
51725;DHT22;37801;53.224;6.552;2022-07-06T05:36:57;15.60;99.90
51725;DHT22;37801;53.224;6.552;2022-07-06T05:39:23;15.60;99.90
51725;DHT22;37801;53.224;6.552;2022-07-06T05:41:49;15.60;99.90
51725;DHT22;37801;53.224;6.552;2022-07-06T05:44:14;15.60;99.90
51725;DHT22;37801;53.224;6.552;2022-07-06T05:46:40;15.60;99.90
51725;DHT22;37801;53.224;6.552;2022-07-06T05:49:06;15.60;99.90
51725;DHT22;37801;53.224;6.552;2022-07-06T05:51:50;15.60;99.90
51725;DHT22;37801;53.224;6.552;2022-07-06T05:54:16;15.60;99.90
51725;DHT22;37801;53.224;6.552;2022-07-06T05:56:42;15.70;99.90
51725;DHT22;37801;53.224;6.552;2022-07-06T05:59:07;15.70;99.90
51725;DHT22;37801;53.224;6.552;2022-07-06T06:01:33;15.90;99.90
51725;DHT22;37801;53.224;6.552;2022-07-06T06:03:59;16.00;99.90
51725;DHT22;37801;53.224;6.552;2022-07-06T06:06:26;16.10;99.90
51725;DHT22;37801;53.224;6.552;2022-07-06T06:08:52;16.20;99.90
51725;DHT22;37801;53.224;6.552;2022-07-06T06:11:17;16.30;99.90
51725;DHT22;37801;53.224;6.552;2022-07-06T06:13:43;16.30;99.90
51725;DHT22;37801;53.224;6.552;2022-07-06T06:16:09;16.30;99.90
51725;DHT22;37801;53.224;6.552;2022-07-06T06:18:35;16.30;99.90
51725;DHT22;37801;53.224;6.552;2022-07-06T06:21:00;16.20;99.90
51725;DHT22;37801;53.224;6.552;2022-07-06T06:23:26;16.10;99.90
51725;DHT22;37801;53.224;6.552;2022-07-06T06:25:52;16.00;99.90
51725;DHT22;37801;53.224;6.552;2022-07-06T06:28:17;16.00;99.90
51725;DHT22;37801;53.224;6.552;2022-07-06T06:30:43;16.00;99.90
51725;DHT22;37801;53.224;6.552;2022-07-06T06:33:14;16.00;99.90
51725;DHT22;37801;53.224;6.552;2022-07-06T06:38:09;16.10;99.90
51725;DHT22;37801;53.224;6.552;2022-07-06T06:40:35;16.10;99.90
51725;DHT22;37801;53.224;6.552;2022-07-06T06:43:01;16.20;99.90
51725;DHT22;37801;53.224;6.552;2022-07-06T06:45:27;16.20;99.90
51725;DHT22;37801;53.224;6.552;2022-07-06T06:47:53;16.20;99.90
51725;DHT22;37801;53.224;6.552;2022-07-06T06:50:18;16.30;99.90
51725;DHT22;37801;53.224;6.552;2022-07-06T06:52:44;16.20;99.90
51725;DHT22;37801;53.224;6.552;2022-07-06T06:55:10;16.20;99.90
51725;DHT22;37801;53.224;6.552;2022-07-06T06:57:36;16.30;99.90
51725;DHT22;37801;53.224;6.552;2022-07-06T07:00:03;16.40;99.90
51725;DHT22;37801;53.224;6.552;2022-07-06T07:02:30;16.50;99.90
51725;DHT22;37801;53.224;6.552;2022-07-06T07:04:55;16.60;99.90
51725;DHT22;37801;53.224;6.552;2022-07-06T07:07:21;16.70;99.90
51725;DHT22;37801;53.224;6.552;2022-07-06T07:09:47;16.80;99.90
51725;DHT22;37801;53.224;6.552;2022-07-06T07:12:13;16.80;99.90
51725;DHT22;37801;53.224;6.552;2022-07-06T07:14:40;16.70;99.90
51725;DHT22;37801;53.224;6.552;2022-07-06T07:17:06;16.70;99.90
51725;DHT22;37801;53.224;6.552;2022-07-06T07:19:32;16.60;99.90
51725;DHT22;37801;53.224;6.552;2022-07-06T07:21:57;16.60;99.90
51725;DHT22;37801;53.224;6.552;2022-07-06T07:24:23;16.50;99.90
51725;DHT22;37801;53.224;6.552;2022-07-06T07:26:49;16.40;99.90
51725;DHT22;37801;53.224;6.552;2022-07-06T07:29:14;16.30;99.90
51725;DHT22;37801;53.224;6.552;2022-07-06T07:31:40;16.30;99.90
51725;DHT22;37801;53.224;6.552;2022-07-06T07:34:06;16.20;99.90
51725;DHT22;37801;53.224;6.552;2022-07-06T07:36:32;16.20;99.90
51725;DHT22;37801;53.224;6.552;2022-07-06T07:38:58;16.20;99.90
51725;DHT22;37801;53.224;6.552;2022-07-06T07:41:24;16.30;99.90
51725;DHT22;37801;53.224;6.552;2022-07-06T07:43:49;16.40;99.90
51725;DHT22;37801;53.224;6.552;2022-07-06T07:46:15;16.50;99.90
51725;DHT22;37801;53.224;6.552;2022-07-06T07:48:41;16.70;99.90
51725;DHT22;37801;53.224;6.552;2022-07-06T07:51:07;16.70;99.90
51725;DHT22;37801;53.224;6.552;2022-07-06T07:53:33;16.80;99.90
51725;DHT22;37801;53.224;6.552;2022-07-06T07:55:58;16.90;99.90
51725;DHT22;37801;53.224;6.552;2022-07-06T07:58:24;17.00;99.90
51725;DHT22;37801;53.224;6.552;2022-07-06T08:00:50;17.10;99.90
51725;DHT22;37801;53.224;6.552;2022-07-06T08:03:16;17.20;99.90
51725;DHT22;37801;53.224;6.552;2022-07-06T08:05:41;17.30;99.90
51725;DHT22;37801;53.224;6.552;2022-07-06T08:08:07;17.30;99.90
51725;DHT22;37801;53.224;6.552;2022-07-06T08:10:33;17.30;99.90
51725;DHT22;37801;53.224;6.552;2022-07-06T08:12:58;17.30;99.90
51725;DHT22;37801;53.224;6.552;2022-07-06T08:15:24;17.40;99.90
51725;DHT22;37801;53.224;6.552;2022-07-06T08:17:50;17.40;99.90
51725;DHT22;37801;53.224;6.552;2022-07-06T08:20:16;17.40;99.90
51725;DHT22;37801;53.224;6.552;2022-07-06T08:22:42;17.40;99.90
51725;DHT22;37801;53.224;6.552;2022-07-06T08:25:08;17.40;99.90
51725;DHT22;37801;53.224;6.552;2022-07-06T08:27:35;17.50;99.90
51725;DHT22;37801;53.224;6.552;2022-07-06T08:30:02;17.50;99.90
51725;DHT22;37801;53.224;6.552;2022-07-06T08:32:28;17.60;99.90
51725;DHT22;37801;53.224;6.552;2022-07-06T08:34:53;17.60;99.90
51725;DHT22;37801;53.224;6.552;2022-07-06T08:37:20;17.60;99.90
51725;DHT22;37801;53.224;6.552;2022-07-06T08:39:45;17.70;99.90
51725;DHT22;37801;53.224;6.552;2022-07-06T08:42:12;17.70;99.90
51725;DHT22;37801;53.224;6.552;2022-07-06T08:44:40;17.70;99.90
51725;DHT22;37801;53.224;6.552;2022-07-06T08:47:06;17.80;99.90
51725;DHT22;37801;53.224;6.552;2022-07-06T08:49:33;17.80;99.90
51725;DHT22;37801;53.224;6.552;2022-07-06T08:52:00;17.90;99.90
51725;DHT22;37801;53.224;6.552;2022-07-06T08:54:26;17.90;99.90
51725;DHT22;37801;53.224;6.552;2022-07-06T08:56:53;18.00;99.90
51725;DHT22;37801;53.224;6.552;2022-07-06T08:59:19;18.10;99.90
51725;DHT22;37801;53.224;6.552;2022-07-06T09:01:45;18.20;99.90
51725;DHT22;37801;53.224;6.552;2022-07-06T09:04:15;18.30;99.90
51725;DHT22;37801;53.224;6.552;2022-07-06T09:06:43;18.20;99.90
51725;DHT22;37801;53.224;6.552;2022-07-06T09:09:14;18.30;99.90
51725;DHT22;37801;53.224;6.552;2022-07-06T09:11:43;18.10;99.90
51725;DHT22;37801;53.224;6.552;2022-07-06T09:14:09;18.00;99.90
51725;DHT22;37801;53.224;6.552;2022-07-06T09:16:35;17.90;99.90
51725;DHT22;37801;53.224;6.552;2022-07-06T09:19:01;17.80;99.90
51725;DHT22;37801;53.224;6.552;2022-07-06T09:21:31;17.80;99.90
51725;DHT22;37801;53.224;6.552;2022-07-06T09:24:00;17.70;99.90
51725;DHT22;37801;53.224;6.552;2022-07-06T09:26:28;17.70;99.90
51725;DHT22;37801;53.224;6.552;2022-07-06T09:28:55;17.60;99.90
51725;DHT22;37801;53.224;6.552;2022-07-06T09:31:22;17.60;99.90
51725;DHT22;37801;53.224;6.552;2022-07-06T09:34:03;17.70;99.90
51725;DHT22;37801;53.224;6.552;2022-07-06T09:36:46;17.90;99.90
51725;DHT22;37801;53.224;6.552;2022-07-06T09:39:24;18.10;99.90
51725;DHT22;37801;53.224;6.552;2022-07-06T09:41:56;18.30;99.90
51725;DHT22;37801;53.224;6.552;2022-07-06T09:44:31;18.30;99.90
51725;DHT22;37801;53.224;6.552;2022-07-06T09:47:00;18.40;99.90
51725;DHT22;37801;53.224;6.552;2022-07-06T09:49:27;18.50;99.90
51725;DHT22;37801;53.224;6.552;2022-07-06T09:51:56;18.60;99.90
51725;DHT22;37801;53.224;6.552;2022-07-06T09:54:23;18.70;99.90
51725;DHT22;37801;53.224;6.552;2022-07-06T09:56:50;18.70;99.90
51725;DHT22;37801;53.224;6.552;2022-07-06T09:59:19;18.80;99.90
51725;DHT22;37801;53.224;6.552;2022-07-06T10:01:45;19.00;99.90
51725;DHT22;37801;53.224;6.552;2022-07-06T10:04:12;19.00;99.90
51725;DHT22;37801;53.224;6.552;2022-07-06T10:06:39;19.10;99.90
51725;DHT22;37801;53.224;6.552;2022-07-06T10:09:08;19.20;99.90
51725;DHT22;37801;53.224;6.552;2022-07-06T10:11:40;19.10;99.90
51725;DHT22;37801;53.224;6.552;2022-07-06T10:14:07;19.10;99.90
51725;DHT22;37801;53.224;6.552;2022-07-06T10:16:36;19.10;99.90
51725;DHT22;37801;53.224;6.552;2022-07-06T10:19:05;19.10;99.90
51725;DHT22;37801;53.224;6.552;2022-07-06T10:21:33;19.10;99.90
51725;DHT22;37801;53.224;6.552;2022-07-06T10:23:59;19.00;99.90
51725;DHT22;37801;53.224;6.552;2022-07-06T10:26:26;19.00;99.90
51725;DHT22;37801;53.224;6.552;2022-07-06T10:28:52;19.00;99.90
51725;DHT22;37801;53.224;6.552;2022-07-06T10:31:19;18.90;99.90
51725;DHT22;37801;53.224;6.552;2022-07-06T10:33:46;18.90;99.90
51725;DHT22;37801;53.224;6.552;2022-07-06T10:36:13;18.90;99.90
51725;DHT22;37801;53.224;6.552;2022-07-06T10:38:40;18.90;99.90
51725;DHT22;37801;53.224;6.552;2022-07-06T10:41:09;18.80;99.90
51725;DHT22;37801;53.224;6.552;2022-07-06T10:46:06;18.80;99.90
51725;DHT22;37801;53.224;6.552;2022-07-06T10:48:43;18.80;99.90
51725;DHT22;37801;53.224;6.552;2022-07-06T10:51:11;18.90;99.90
51725;DHT22;37801;53.224;6.552;2022-07-06T10:53:40;19.10;99.90
51725;DHT22;37801;53.224;6.552;2022-07-06T10:56:10;19.10;99.90
51725;DHT22;37801;53.224;6.552;2022-07-06T10:58:48;19.20;99.90
51725;DHT22;37801;53.224;6.552;2022-07-06T11:01:16;19.20;99.90
51725;DHT22;37801;53.224;6.552;2022-07-06T11:03:50;19.30;99.90
51725;DHT22;37801;53.224;6.552;2022-07-06T11:06:37;19.30;99.90
51725;DHT22;37801;53.224;6.552;2022-07-06T11:09:10;19.40;99.90
51725;DHT22;37801;53.224;6.552;2022-07-06T11:16:33;19.30;99.90
51725;DHT22;37801;53.224;6.552;2022-07-06T11:19:04;19.30;99.90
51725;DHT22;37801;53.224;6.552;2022-07-06T11:21:44;19.40;99.90
51725;DHT22;37801;53.224;6.552;2022-07-06T11:24:14;19.40;99.90
51725;DHT22;37801;53.224;6.552;2022-07-06T11:26:41;19.40;99.90
51725;DHT22;37801;53.224;6.552;2022-07-06T11:29:10;19.40;99.90
51725;DHT22;37801;53.224;6.552;2022-07-06T11:31:42;19.40;99.90
51725;DHT22;37801;53.224;6.552;2022-07-06T11:34:10;19.50;99.90
51725;DHT22;37801;53.224;6.552;2022-07-06T11:36:37;19.50;99.90
51725;DHT22;37801;53.224;6.552;2022-07-06T11:39:04;19.70;99.90
51725;DHT22;37801;53.224;6.552;2022-07-06T11:41:31;19.80;99.90
51725;DHT22;37801;53.224;6.552;2022-07-06T11:43:57;19.80;99.90
51725;DHT22;37801;53.224;6.552;2022-07-06T11:48:59;19.80;99.90
51725;DHT22;37801;53.224;6.552;2022-07-06T11:51:27;19.70;99.90
51725;DHT22;37801;53.224;6.552;2022-07-06T11:53:55;19.80;99.90
51725;DHT22;37801;53.224;6.552;2022-07-06T11:56:22;19.90;99.90
51725;DHT22;37801;53.224;6.552;2022-07-06T11:58:52;20.00;99.90
51725;DHT22;37801;53.224;6.552;2022-07-06T12:01:18;20.20;99.90
51725;DHT22;37801;53.224;6.552;2022-07-06T12:03:44;20.30;99.90
51725;DHT22;37801;53.224;6.552;2022-07-06T12:08:52;20.30;99.90
51725;DHT22;37801;53.224;6.552;2022-07-06T12:11:28;20.30;99.90
51725;DHT22;37801;53.224;6.552;2022-07-06T12:13:59;20.20;99.90
51725;DHT22;37801;53.224;6.552;2022-07-06T12:16:36;20.30;99.90
51725;DHT22;37801;53.224;6.552;2022-07-06T12:19:03;20.30;99.90
51725;DHT22;37801;53.224;6.552;2022-07-06T12:21:30;20.30;99.90
51725;DHT22;37801;53.224;6.552;2022-07-06T12:23:55;20.30;99.90
51725;DHT22;37801;53.224;6.552;2022-07-06T12:26:24;20.40;99.90
51725;DHT22;37801;53.224;6.552;2022-07-06T12:29:00;20.50;99.90
51725;DHT22;37801;53.224;6.552;2022-07-06T12:31:55;20.50;99.90
51725;DHT22;37801;53.224;6.552;2022-07-06T12:34:29;20.40;99.90
51725;DHT22;37801;53.224;6.552;2022-07-06T12:37:09;20.30;99.90
51725;DHT22;37801;53.224;6.552;2022-07-06T12:39:47;20.50;99.90
51725;DHT22;37801;53.224;6.552;2022-07-06T12:42:16;20.60;99.90
51725;DHT22;37801;53.224;6.552;2022-07-06T12:44:45;20.70;99.90
51725;DHT22;37801;53.224;6.552;2022-07-06T12:47:11;20.80;99.90
51725;DHT22;37801;53.224;6.552;2022-07-06T12:49:39;20.80;99.90
51725;DHT22;37801;53.224;6.552;2022-07-06T12:52:12;20.80;99.90
51725;DHT22;37801;53.224;6.552;2022-07-06T12:54:49;20.70;99.90
51725;DHT22;37801;53.224;6.552;2022-07-06T12:57:20;20.70;99.90
51725;DHT22;37801;53.224;6.552;2022-07-06T12:59:55;20.60;99.90
51725;DHT22;37801;53.224;6.552;2022-07-06T13:02:31;20.50;99.90
51725;DHT22;37801;53.224;6.552;2022-07-06T13:05:09;20.50;99.90
51725;DHT22;37801;53.224;6.552;2022-07-06T13:07:37;20.60;99.90
51725;DHT22;37801;53.224;6.552;2022-07-06T13:10:08;20.60;99.90
51725;DHT22;37801;53.224;6.552;2022-07-06T13:12:34;20.50;99.90
51725;DHT22;37801;53.224;6.552;2022-07-06T13:15:00;20.40;99.90
51725;DHT22;37801;53.224;6.552;2022-07-06T13:17:26;20.40;99.90
51725;DHT22;37801;53.224;6.552;2022-07-06T13:19:52;20.40;99.90
51725;DHT22;37801;53.224;6.552;2022-07-06T13:22:18;20.60;99.90
51725;DHT22;37801;53.224;6.552;2022-07-06T13:24:44;20.70;99.90
51725;DHT22;37801;53.224;6.552;2022-07-06T13:27:10;20.70;99.90
51725;DHT22;37801;53.224;6.552;2022-07-06T13:29:36;20.60;99.90
51725;DHT22;37801;53.224;6.552;2022-07-06T13:32:03;20.40;99.90
51725;DHT22;37801;53.224;6.552;2022-07-06T13:34:30;20.40;99.90
51725;DHT22;37801;53.224;6.552;2022-07-06T13:36:56;20.40;99.90
51725;DHT22;37801;53.224;6.552;2022-07-06T13:39:22;20.40;99.90
51725;DHT22;37801;53.224;6.552;2022-07-06T13:41:47;20.40;99.90
51725;DHT22;37801;53.224;6.552;2022-07-06T13:44:13;20.30;99.90
51725;DHT22;37801;53.224;6.552;2022-07-06T13:46:40;20.20;99.90
51725;DHT22;37801;53.224;6.552;2022-07-06T13:49:06;20.20;99.90
51725;DHT22;37801;53.224;6.552;2022-07-06T13:51:32;20.10;99.90
51725;DHT22;37801;53.224;6.552;2022-07-06T13:54:01;19.90;99.90
51725;DHT22;37801;53.224;6.552;2022-07-06T13:56:27;20.00;99.90
51725;DHT22;37801;53.224;6.552;2022-07-06T13:58:53;19.80;99.90
51725;DHT22;37801;53.224;6.552;2022-07-06T14:01:19;19.90;99.90
51725;DHT22;37801;53.224;6.552;2022-07-06T14:03:45;19.90;99.90
51725;DHT22;37801;53.224;6.552;2022-07-06T14:06:11;20.00;99.90
51725;DHT22;37801;53.224;6.552;2022-07-06T14:08:38;20.00;99.90
51725;DHT22;37801;53.224;6.552;2022-07-06T14:11:05;20.00;99.90
51725;DHT22;37801;53.224;6.552;2022-07-06T14:13:33;19.90;99.90
51725;DHT22;37801;53.224;6.552;2022-07-06T14:15:59;19.90;99.90
51725;DHT22;37801;53.224;6.552;2022-07-06T14:18:25;19.70;99.90
51725;DHT22;37801;53.224;6.552;2022-07-06T14:20:51;19.60;99.90
51725;DHT22;37801;53.224;6.552;2022-07-06T14:23:17;19.60;99.90
51725;DHT22;37801;53.224;6.552;2022-07-06T14:25:44;19.50;99.90
51725;DHT22;37801;53.224;6.552;2022-07-06T14:28:10;19.50;99.90
51725;DHT22;37801;53.224;6.552;2022-07-06T14:30:39;19.40;99.90
51725;DHT22;37801;53.224;6.552;2022-07-06T14:33:07;19.30;99.90
51725;DHT22;37801;53.224;6.552;2022-07-06T14:35:40;19.30;99.90
51725;DHT22;37801;53.224;6.552;2022-07-06T14:38:07;19.20;99.90
51725;DHT22;37801;53.224;6.552;2022-07-06T14:40:34;19.20;99.90
51725;DHT22;37801;53.224;6.552;2022-07-06T14:43:00;19.20;99.90
51725;DHT22;37801;53.224;6.552;2022-07-06T14:45:26;19.20;99.90
51725;DHT22;37801;53.224;6.552;2022-07-06T14:47:53;19.20;99.90
51725;DHT22;37801;53.224;6.552;2022-07-06T14:50:19;19.20;99.90
51725;DHT22;37801;53.224;6.552;2022-07-06T14:52:45;19.20;99.90
51725;DHT22;37801;53.224;6.552;2022-07-06T14:55:11;19.10;99.90
51725;DHT22;37801;53.224;6.552;2022-07-06T14:57:36;19.10;99.90
51725;DHT22;37801;53.224;6.552;2022-07-06T15:00:03;19.00;99.90
51725;DHT22;37801;53.224;6.552;2022-07-06T15:02:29;18.70;99.90
51725;DHT22;37801;53.224;6.552;2022-07-06T15:04:54;18.50;99.90
51725;DHT22;37801;53.224;6.552;2022-07-06T15:07:20;18.30;99.90
51725;DHT22;37801;53.224;6.552;2022-07-06T15:09:46;18.30;99.90
51725;DHT22;37801;53.224;6.552;2022-07-06T15:12:12;18.10;99.90
51725;DHT22;37801;53.224;6.552;2022-07-06T15:14:38;18.10;99.90
51725;DHT22;37801;53.224;6.552;2022-07-06T15:17:04;18.00;99.90
51725;DHT22;37801;53.224;6.552;2022-07-06T15:19:30;18.00;99.90
51725;DHT22;37801;53.224;6.552;2022-07-06T15:21:56;18.00;99.90
51725;DHT22;37801;53.224;6.552;2022-07-06T15:24:21;18.10;99.90
51725;DHT22;37801;53.224;6.552;2022-07-06T15:26:48;18.00;99.90
51725;DHT22;37801;53.224;6.552;2022-07-06T15:29:14;18.10;99.90
51725;DHT22;37801;53.224;6.552;2022-07-06T15:31:39;18.10;99.90
51725;DHT22;37801;53.224;6.552;2022-07-06T15:34:05;18.10;99.90
51725;DHT22;37801;53.224;6.552;2022-07-06T15:36:31;18.10;99.90
51725;DHT22;37801;53.224;6.552;2022-07-06T15:38:57;18.20;99.90
51725;DHT22;37801;53.224;6.552;2022-07-06T15:41:23;18.10;99.90
51725;DHT22;37801;53.224;6.552;2022-07-06T15:43:48;18.10;99.90
51725;DHT22;37801;53.224;6.552;2022-07-06T15:46:14;18.10;99.90
51725;DHT22;37801;53.224;6.552;2022-07-06T15:48:40;18.10;99.90
51725;DHT22;37801;53.224;6.552;2022-07-06T15:51:06;17.90;99.90